AirNav   Everest Fuels
 
 1435 users online  

FL87 Intra Coastal Police Sub-Station Heliport
North Miami Beach, Florida, USA

GOING TO NORTH MIAMI BEACH?


FAA INFORMATION EFFECTIVE 05 DECEMBER 2019

Location

FAA Identifier: FL87
Lat/Long: 25-55-01.3370N 080-08-59.1650W
25-55.022283N 080-08.986083W
25.9170381,-80.1497681
(estimated)
Elevation: 6 ft. / 2 m (estimated)
Variation: 03W (1985)
Time zone: UTC -5 (UTC -4 during Daylight Saving Time)
Zip code: 33181

Heliport Operations

Heliport use: Private use. Permission required prior to landing
Activation date: 03/1976
Control tower: no
ARTCC: MIAMI CENTER
FSS: MIAMI FLIGHT SERVICE STATION
Attendance: CONTINUOUS
Wind indicator: yes
Segmented circle: no
Lights: FOR PERIMETER LGTS CALL POLICE RADIO CONTROL.
Beacon: white-green-yellow (heliport)
FOR ROTG BCN CALL POLICE RADIO CONTROL.

Heliport Communications

WX ASOS at OPF (7 nm W): 125.9 (305-681-4063)
WX ASOS at HWO (7 nm NW): PHONE 954-983-5904
WX ASOS at FLL (9 nm N): PHONE 954-359-7857
WX ASOS at MIA (11 nm SW): PHONE 305-870-0235
WX ASOS at FXE (17 nm N): PHONE 954-772-2537
WX ASOS at PMP (20 nm N): PHONE 954-783-3720

Nearby radio navigation aids

VOR radial/distance  VOR name  Freq  Var
FLLr181/9.5FORT LAUDERDALE VOR/DME114.4006W
VKZr005/9.9VIRGINIA KEY VOR/DME117.1004W
DHPr061/12.8DOLPHIN VORTAC113.9004W

Heliport Services

Runway Information

Helipad H1

Dimensions: 50 x 50 ft. / 15 x 15 m
Surface: asphalt, in fair condition
ROOFTOP.
Runway edge lights: PERI
Latitude: 25-55.022283N
Longitude: 080-08.986083W
Elevation: 6.0 ft.
Traffic pattern: leftleft
Markings: none, in fair condition

Heliport Ownership and Management from official FAA records

Ownership: Publicly-owned
Owner: METRO-DADE POLICE DEPARTMENT
9105 NW 25 ST
MIAMI, FL 33172
Phone 305-471-2100
Manager: ANDREW COHEN
4285 NW 145 ST
OPA LOCKA, FL 33054
Phone (305) 953-6000

Heliport Operational Statistics

Aircraft based on the field: 3
Helicopters: 3
    

Additional Remarks

A52-H1 FUEL TANK FARM ON WEST SIDE OF HELIPAD.
FOR CD CTC MIAMI APCH AT 305-869-5432.

Instrument Procedures

There are no published instrument procedures at FL87.

Some nearby airports with instrument procedures:

KOPF - Miami-Opa Locka Executive Airport (7 nm W)
KHWO - North Perry Airport (7 nm NW)
KFLL - Fort Lauderdale/Hollywood International Airport (9 nm N)
KMIA - Miami International Airport (11 nm SW)
KFXE - Fort Lauderdale Executive Airport (17 nm N)
KPMP - Pompano Beach Airpark (20 nm N)
 
Loc | Ops | Rwys | IFR | FBO | Links
Com | Nav | Svcs | Stats | Notes


 
Area around FL87 (Intra Coastal Police Sub-Station Heliport)
 
Road maps at: MapQuest Bing Google
 
Aerial photo
No photo
 
Sectional chart

 
Airport distance calculator
Flying to Intra Coastal Police Sub-Station Heliport? Find the distance to fly.

From to FL87

Sunrise and sunset
Times for 09-Dec-2019
 Local
(UTC-5)
 Zulu
(UTC)
Morning civil twilight06:3211:32
Sunrise06:5711:57
Sunset17:2922:29
Evening civil twilight17:5422:54

Current date and time
Zulu (UTC)  09-Dec-2019 18:43:45
Local (UTC-5)  09-Dec-2019 13:43:45
 
METAR
KHWO 
7nm NW 
091753Z 10010KT 10SM FEW037 28/18 A3009 RMK AO2 SLP190 T02830183 10283 20167 58021 $
KOPF 
7nm W 
091753Z 14010KT 10SM CLR 28/19 A3009 RMK AO2 SLP189 T02830189 10289 20172 58021 $
KFLL 
9nm N 
091753Z 13011KT 10SM FEW030 27/19 A3008 RMK AO2 SLP184 T02670189 10272 20211 58021 $
KMIA 
12nm SW 
091753Z 11010KT 10SM FEW028 28/18 A3008 RMK AO2 SLP187 T02830183 10283 20189 58021
KFXE 
17nm N 
091753Z 12010G18KT 10SM SCT034 27/18 A3008 RMK AO2 SLP188 T02720178 10278 20161 58022
TAF
KOPF 
7nm W 
091728Z 0918/1018 11010KT P6SM SCT035 FM100000 11006KT P6SM FEW040 SCT100 FM101500 13013KT P6SM SCT035 SCT100
KFLL 
9nm N 
091728Z 0918/1024 13010KT P6SM FEW030 SCT050 FM100000 10007KT P6SM FEW040 SCT100 FM101400 13012KT P6SM FEW030 SCT100
KMIA 
12nm SW 
091728Z 0918/1024 11012KT P6SM SCT035 FM100000 11006KT P6SM FEW040 SCT100 FM101500 13013KT P6SM SCT035 SCT100
KFXE 
17nm N 
091728Z 0918/1018 13010KT P6SM FEW030 SCT050 FM100000 10006KT P6SM FEW040 SCT100 FM101400 13012KT P6SM FEW030 SCT100
NOTAMs
Click for the latest NOTAMs
NOTAMs are issued by the DoD/FAA and will open in a separate window not controlled by AirNav.

 

 
 

Would you like to see your business listed on this page?

 If your business provides an interesting product or service to pilots, flight crews, aircraft, or users of the Intra Coastal Police Sub-Station Heliport, you should consider listing it here.  To start the listing process, click on the button below
 
Add a business
 

Other Pages about Intra Coastal Police Sub-Station Heliport

Update a link
 
Copyright © AirNav, LLC. All rights reserved. Privacy Policy  Contact